sensor_id;sensor_type;location;lat;lon;timestamp;P1;durP1;ratioP1;P2;durP2;ratioP2
9392;SDS011;4736;52.508;13.422;2023-08-17T00:01:37;3.57;;;3.37;;
9392;SDS011;4736;52.508;13.422;2023-08-17T00:04:40;3.30;;;3.20;;
9392;SDS011;4736;52.508;13.422;2023-08-17T00:07:43;4.53;;;4.10;;
9392;SDS011;4736;52.508;13.422;2023-08-17T00:10:46;4.17;;;3.73;;
9392;SDS011;4736;52.508;13.422;2023-08-17T00:13:49;3.60;;;3.47;;
9392;SDS011;4736;52.508;13.422;2023-08-17T00:16:54;3.23;;;3.03;;
9392;SDS011;4736;52.508;13.422;2023-08-17T00:19:57;3.37;;;3.07;;
9392;SDS011;4736;52.508;13.422;2023-08-17T00:23:00;3.77;;;3.57;;
9392;SDS011;4736;52.508;13.422;2023-08-17T00:26:03;3.77;;;3.57;;
9392;SDS011;4736;52.508;13.422;2023-08-17T00:29:08;4.40;;;3.77;;
9392;SDS011;4736;52.508;13.422;2023-08-17T00:32:13;5.30;;;3.80;;
9392;SDS011;4736;52.508;13.422;2023-08-17T00:35:16;5.97;;;4.20;;
9392;SDS011;4736;52.508;13.422;2023-08-17T00:38:19;3.70;;;3.60;;
9392;SDS011;4736;52.508;13.422;2023-08-17T00:41:22;3.80;;;3.50;;
9392;SDS011;4736;52.508;13.422;2023-08-17T00:44:26;3.67;;;3.43;;
9392;SDS011;4736;52.508;13.422;2023-08-17T00:47:31;4.00;;;3.80;;
9392;SDS011;4736;52.508;13.422;2023-08-17T00:50:34;4.43;;;4.13;;
9392;SDS011;4736;52.508;13.422;2023-08-17T00:53:38;5.83;;;4.10;;
9392;SDS011;4736;52.508;13.422;2023-08-17T00:56:41;4.77;;;4.27;;
9392;SDS011;4736;52.508;13.422;2023-08-17T00:59:44;5.97;;;4.20;;
9392;SDS011;4736;52.508;13.422;2023-08-17T01:03:06;4.07;;;3.77;;
9392;SDS011;4736;52.508;13.422;2023-08-17T01:06:10;3.90;;;3.80;;
9392;SDS011;4736;52.508;13.422;2023-08-17T01:09:13;5.80;;;4.27;;
9392;SDS011;4736;52.508;13.422;2023-08-17T01:12:17;3.97;;;3.77;;
9392;SDS011;4736;52.508;13.422;2023-08-17T01:15:30;4.20;;;3.90;;
9392;SDS011;4736;52.508;13.422;2023-08-17T01:18:38;4.53;;;4.10;;
9392;SDS011;4736;52.508;13.422;2023-08-17T01:21:45;5.80;;;3.93;;
9392;SDS011;4736;52.508;13.422;2023-08-17T01:24:55;5.17;;;4.57;;
9392;SDS011;4736;52.508;13.422;2023-08-17T01:27:59;3.77;;;3.60;;
9392;SDS011;4736;52.508;13.422;2023-08-17T01:31:03;4.90;;;3.70;;
9392;SDS011;4736;52.508;13.422;2023-08-17T01:34:14;5.43;;;5.03;;
9392;SDS011;4736;52.508;13.422;2023-08-17T01:37:21;5.43;;;4.33;;
9392;SDS011;4736;52.508;13.422;2023-08-17T01:40:29;4.03;;;3.80;;
9392;SDS011;4736;52.508;13.422;2023-08-17T01:43:35;7.40;;;4.37;;
9392;SDS011;4736;52.508;13.422;2023-08-17T01:46:38;4.77;;;4.43;;
9392;SDS011;4736;52.508;13.422;2023-08-17T01:49:43;5.43;;;5.00;;
9392;SDS011;4736;52.508;13.422;2023-08-17T01:52:48;5.70;;;5.20;;
9392;SDS011;4736;52.508;13.422;2023-08-17T01:55:53;6.13;;;4.93;;
9392;SDS011;4736;52.508;13.422;2023-08-17T01:58:56;4.63;;;4.40;;
9392;SDS011;4736;52.508;13.422;2023-08-17T02:01:59;5.73;;;3.80;;
9392;SDS011;4736;52.508;13.422;2023-08-17T02:05:02;4.23;;;3.93;;
9392;SDS011;4736;52.508;13.422;2023-08-17T02:08:06;4.83;;;3.80;;
9392;SDS011;4736;52.508;13.422;2023-08-17T02:11:11;3.70;;;3.40;;
9392;SDS011;4736;52.508;13.422;2023-08-17T02:14:14;4.07;;;3.77;;
9392;SDS011;4736;52.508;13.422;2023-08-17T02:17:18;4.03;;;3.67;;
9392;SDS011;4736;52.508;13.422;2023-08-17T02:20:22;4.03;;;3.73;;
9392;SDS011;4736;52.508;13.422;2023-08-17T02:23:25;4.13;;;3.93;;
9392;SDS011;4736;52.508;13.422;2023-08-17T02:26:30;3.67;;;3.47;;
9392;SDS011;4736;52.508;13.422;2023-08-17T02:29:35;4.80;;;4.00;;
9392;SDS011;4736;52.508;13.422;2023-08-17T02:32:38;4.13;;;3.77;;
9392;SDS011;4736;52.508;13.422;2023-08-17T02:35:41;4.83;;;4.23;;
9392;SDS011;4736;52.508;13.422;2023-08-17T02:38:45;4.27;;;3.47;;
9392;SDS011;4736;52.508;13.422;2023-08-17T02:41:49;4.80;;;4.20;;
9392;SDS011;4736;52.508;13.422;2023-08-17T02:44:52;4.33;;;3.90;;
9392;SDS011;4736;52.508;13.422;2023-08-17T02:47:56;4.83;;;4.03;;
9392;SDS011;4736;52.508;13.422;2023-08-17T02:51:00;5.27;;;4.20;;
9392;SDS011;4736;52.508;13.422;2023-08-17T02:54:04;4.30;;;4.00;;
9392;SDS011;4736;52.508;13.422;2023-08-17T02:57:09;5.33;;;4.03;;
9392;SDS011;4736;52.508;13.422;2023-08-17T03:00:12;9.47;;;3.80;;
9392;SDS011;4736;52.508;13.422;2023-08-17T03:03:16;5.33;;;4.53;;
9392;SDS011;4736;52.508;13.422;2023-08-17T03:06:19;6.77;;;3.90;;
9392;SDS011;4736;52.508;13.422;2023-08-17T03:09:22;5.80;;;4.03;;
9392;SDS011;4736;52.508;13.422;2023-08-17T03:12:27;4.40;;;4.00;;
9392;SDS011;4736;52.508;13.422;2023-08-17T03:15:30;6.90;;;4.27;;
9392;SDS011;4736;52.508;13.422;2023-08-17T03:18:35;4.53;;;4.13;;
9392;SDS011;4736;52.508;13.422;2023-08-17T03:21:40;3.70;;;3.60;;
9392;SDS011;4736;52.508;13.422;2023-08-17T03:24:43;3.87;;;3.57;;
9392;SDS011;4736;52.508;13.422;2023-08-17T03:27:47;4.60;;;4.27;;
9392;SDS011;4736;52.508;13.422;2023-08-17T03:30:54;7.77;;;3.83;;
9392;SDS011;4736;52.508;13.422;2023-08-17T03:33:57;4.80;;;3.70;;
9392;SDS011;4736;52.508;13.422;2023-08-17T03:37:01;4.10;;;3.80;;
9392;SDS011;4736;52.508;13.422;2023-08-17T03:40:06;3.83;;;3.63;;
9392;SDS011;4736;52.508;13.422;2023-08-17T03:43:11;3.73;;;3.53;;
9392;SDS011;4736;52.508;13.422;2023-08-17T03:46:14;3.73;;;3.53;;
9392;SDS011;4736;52.508;13.422;2023-08-17T03:49:17;4.03;;;3.73;;
9392;SDS011;4736;52.508;13.422;2023-08-17T03:52:21;5.87;;;3.80;;
9392;SDS011;4736;52.508;13.422;2023-08-17T03:55:24;6.17;;;3.97;;
9392;SDS011;4736;52.508;13.422;2023-08-17T03:58:28;4.53;;;3.50;;
9392;SDS011;4736;52.508;13.422;2023-08-17T04:01:36;4.13;;;3.83;;
9392;SDS011;4736;52.508;13.422;2023-08-17T04:04:39;4.90;;;3.63;;
9392;SDS011;4736;52.508;13.422;2023-08-17T04:07:44;3.60;;;3.40;;
9392;SDS011;4736;52.508;13.422;2023-08-17T04:10:48;4.47;;;3.80;;
9392;SDS011;4736;52.508;13.422;2023-08-17T04:13:53;5.60;;;4.00;;
9392;SDS011;4736;52.508;13.422;2023-08-17T04:16:56;3.70;;;3.50;;
9392;SDS011;4736;52.508;13.422;2023-08-17T04:19:59;4.23;;;3.93;;
9392;SDS011;4736;52.508;13.422;2023-08-17T04:23:02;4.57;;;3.63;;
9392;SDS011;4736;52.508;13.422;2023-08-17T04:26:05;3.10;;;3.00;;
9392;SDS011;4736;52.508;13.422;2023-08-17T04:29:10;3.70;;;3.27;;
9392;SDS011;4736;52.508;13.422;2023-08-17T04:32:14;3.80;;;3.50;;
9392;SDS011;4736;52.508;13.422;2023-08-17T04:35:17;4.33;;;3.80;;
9392;SDS011;4736;52.508;13.422;2023-08-17T04:38:21;3.70;;;3.40;;
9392;SDS011;4736;52.508;13.422;2023-08-17T04:41:24;3.30;;;3.10;;
9392;SDS011;4736;52.508;13.422;2023-08-17T04:44:28;3.70;;;3.40;;
9392;SDS011;4736;52.508;13.422;2023-08-17T04:47:32;4.10;;;3.80;;
9392;SDS011;4736;52.508;13.422;2023-08-17T04:50:35;3.63;;;3.30;;
9392;SDS011;4736;52.508;13.422;2023-08-17T04:53:38;3.10;;;2.90;;
9392;SDS011;4736;52.508;13.422;2023-08-17T04:56:41;3.50;;;3.40;;
9392;SDS011;4736;52.508;13.422;2023-08-17T04:59:46;3.57;;;3.30;;
9392;SDS011;4736;52.508;13.422;2023-08-17T05:02:49;3.83;;;3.30;;
9392;SDS011;4736;52.508;13.422;2023-08-17T05:05:53;3.10;;;2.90;;
9392;SDS011;4736;52.508;13.422;2023-08-17T05:08:56;2.90;;;2.80;;
9392;SDS011;4736;52.508;13.422;2023-08-17T05:11:59;3.77;;;3.50;;
9392;SDS011;4736;52.508;13.422;2023-08-17T05:15:04;3.43;;;3.23;;
9392;SDS011;4736;52.508;13.422;2023-08-17T05:18:11;3.77;;;3.40;;
9392;SDS011;4736;52.508;13.422;2023-08-17T05:21:14;3.27;;;2.97;;
9392;SDS011;4736;52.508;13.422;2023-08-17T05:24:17;4.03;;;3.33;;
9392;SDS011;4736;52.508;13.422;2023-08-17T05:27:21;3.77;;;3.53;;
9392;SDS011;4736;52.508;13.422;2023-08-17T05:30:26;3.17;;;2.97;;
9392;SDS011;4736;52.508;13.422;2023-08-17T05:33:29;5.13;;;3.17;;
9392;SDS011;4736;52.508;13.422;2023-08-17T05:36:32;3.37;;;3.07;;
9392;SDS011;4736;52.508;13.422;2023-08-17T05:39:36;3.50;;;3.30;;
9392;SDS011;4736;52.508;13.422;2023-08-17T05:42:39;3.73;;;3.40;;
9392;SDS011;4736;52.508;13.422;2023-08-17T05:45:44;2.90;;;2.80;;
9392;SDS011;4736;52.508;13.422;2023-08-17T05:48:47;3.57;;;3.37;;
9392;SDS011;4736;52.508;13.422;2023-08-17T05:51:50;3.77;;;3.57;;
9392;SDS011;4736;52.508;13.422;2023-08-17T05:54:53;3.40;;;3.20;;
9392;SDS011;4736;52.508;13.422;2023-08-17T05:57:56;4.00;;;3.63;;
9392;SDS011;4736;52.508;13.422;2023-08-17T06:01:05;3.87;;;2.90;;
9392;SDS011;4736;52.508;13.422;2023-08-17T06:04:09;2.80;;;2.70;;
9392;SDS011;4736;52.508;13.422;2023-08-17T06:07:12;3.23;;;3.13;;
9392;SDS011;4736;52.508;13.422;2023-08-17T06:10:15;3.17;;;3.07;;
9392;SDS011;4736;52.508;13.422;2023-08-17T06:13:21;3.83;;;3.53;;
9392;SDS011;4736;52.508;13.422;2023-08-17T06:16:26;3.77;;;3.13;;
9392;SDS011;4736;52.508;13.422;2023-08-17T06:19:29;3.40;;;3.20;;
9392;SDS011;4736;52.508;13.422;2023-08-17T06:22:33;3.03;;;2.93;;
9392;SDS011;4736;52.508;13.422;2023-08-17T06:25:36;3.20;;;3.10;;
9392;SDS011;4736;52.508;13.422;2023-08-17T06:28:39;9.53;;;4.03;;
9392;SDS011;4736;52.508;13.422;2023-08-17T06:31:43;3.37;;;3.17;;
9392;SDS011;4736;52.508;13.422;2023-08-17T06:34:46;4.13;;;3.53;;
9392;SDS011;4736;52.508;13.422;2023-08-17T06:37:50;8.33;;;3.30;;
9392;SDS011;4736;52.508;13.422;2023-08-17T06:40:58;4.73;;;3.40;;
9392;SDS011;4736;52.508;13.422;2023-08-17T06:44:01;3.30;;;3.10;;
9392;SDS011;4736;52.508;13.422;2023-08-17T06:47:06;3.67;;;3.47;;
9392;SDS011;4736;52.508;13.422;2023-08-17T06:50:09;4.00;;;3.77;;
9392;SDS011;4736;52.508;13.422;2023-08-17T06:53:13;4.20;;;3.90;;
9392;SDS011;4736;52.508;13.422;2023-08-17T06:56:16;4.57;;;3.33;;
9392;SDS011;4736;52.508;13.422;2023-08-17T06:59:24;3.50;;;3.30;;
9392;SDS011;4736;52.508;13.422;2023-08-17T07:02:28;3.33;;;3.00;;
9392;SDS011;4736;52.508;13.422;2023-08-17T07:05:47;4.90;;;3.50;;
9392;SDS011;4736;52.508;13.422;2023-08-17T07:08:50;3.70;;;3.40;;
9392;SDS011;4736;52.508;13.422;2023-08-17T07:11:54;4.13;;;3.77;;
9392;SDS011;4736;52.508;13.422;2023-08-17T07:14:57;4.10;;;3.13;;
9392;SDS011;4736;52.508;13.422;2023-08-17T07:18:01;2.90;;;2.80;;
9392;SDS011;4736;52.508;13.422;2023-08-17T07:21:05;5.03;;;3.70;;
9392;SDS011;4736;52.508;13.422;2023-08-17T07:24:11;3.80;;;3.70;;
9392;SDS011;4736;52.508;13.422;2023-08-17T07:27:15;4.13;;;3.30;;
9392;SDS011;4736;52.508;13.422;2023-08-17T07:30:18;3.33;;;3.07;;
9392;SDS011;4736;52.508;13.422;2023-08-17T07:33:23;3.90;;;3.23;;
9392;SDS011;4736;52.508;13.422;2023-08-17T07:36:26;3.60;;;3.40;;
9392;SDS011;4736;52.508;13.422;2023-08-17T07:39:30;5.70;;;3.43;;
9392;SDS011;4736;52.508;13.422;2023-08-17T07:42:33;3.50;;;3.30;;
9392;SDS011;4736;52.508;13.422;2023-08-17T07:45:36;3.03;;;2.93;;
9392;SDS011;4736;52.508;13.422;2023-08-17T07:48:41;3.63;;;3.33;;
9392;SDS011;4736;52.508;13.422;2023-08-17T07:51:44;4.30;;;3.93;;
9392;SDS011;4736;52.508;13.422;2023-08-17T07:54:47;5.23;;;3.53;;
9392;SDS011;4736;52.508;13.422;2023-08-17T07:57:50;3.83;;;3.53;;
9392;SDS011;4736;52.508;13.422;2023-08-17T08:00:53;4.30;;;3.77;;
9392;SDS011;4736;52.508;13.422;2023-08-17T08:03:58;3.97;;;3.63;;
9392;SDS011;4736;52.508;13.422;2023-08-17T08:07:01;4.37;;;4.00;;
9392;SDS011;4736;52.508;13.422;2023-08-17T08:10:04;4.57;;;4.13;;
9392;SDS011;4736;52.508;13.422;2023-08-17T08:13:09;4.67;;;4.23;;
9392;SDS011;4736;52.508;13.422;2023-08-17T08:16:13;4.53;;;3.67;;
9392;SDS011;4736;52.508;13.422;2023-08-17T08:19:18;4.83;;;3.80;;
9392;SDS011;4736;52.508;13.422;2023-08-17T08:22:21;4.17;;;3.80;;
9392;SDS011;4736;52.508;13.422;2023-08-17T08:25:26;4.43;;;4.03;;
9392;SDS011;4736;52.508;13.422;2023-08-17T08:28:30;3.80;;;3.60;;
9392;SDS011;4736;52.508;13.422;2023-08-17T08:31:33;4.17;;;3.97;;
9392;SDS011;4736;52.508;13.422;2023-08-17T08:34:37;4.27;;;4.03;;
9392;SDS011;4736;52.508;13.422;2023-08-17T08:37:40;4.60;;;4.07;;
9392;SDS011;4736;52.508;13.422;2023-08-17T08:40:43;3.57;;;3.33;;
9392;SDS011;4736;52.508;13.422;2023-08-17T08:43:49;4.20;;;3.77;;
9392;SDS011;4736;52.508;13.422;2023-08-17T08:46:53;4.53;;;4.13;;
9392;SDS011;4736;52.508;13.422;2023-08-17T08:50:00;6.40;;;4.20;;
9392;SDS011;4736;52.508;13.422;2023-08-17T08:53:05;4.90;;;4.60;;
9392;SDS011;4736;52.508;13.422;2023-08-17T08:56:15;4.73;;;4.43;;
9392;SDS011;4736;52.508;13.422;2023-08-17T08:59:23;4.73;;;4.33;;
9392;SDS011;4736;52.508;13.422;2023-08-17T09:02:28;4.37;;;3.97;;
9392;SDS011;4736;52.508;13.422;2023-08-17T09:05:34;4.00;;;3.80;;
9392;SDS011;4736;52.508;13.422;2023-08-17T09:08:38;4.67;;;4.40;;
9392;SDS011;4736;52.508;13.422;2023-08-17T09:11:42;4.90;;;4.70;;
9392;SDS011;4736;52.508;13.422;2023-08-17T09:14:45;5.33;;;4.87;;
9392;SDS011;4736;52.508;13.422;2023-08-17T09:17:49;5.33;;;5.03;;
9392;SDS011;4736;52.508;13.422;2023-08-17T09:20:54;4.67;;;4.47;;
9392;SDS011;4736;52.508;13.422;2023-08-17T09:23:57;4.73;;;4.47;;
9392;SDS011;4736;52.508;13.422;2023-08-17T09:27:01;5.70;;;5.00;;
9392;SDS011;4736;52.508;13.422;2023-08-17T09:30:11;5.43;;;4.90;;
9392;SDS011;4736;52.508;13.422;2023-08-17T09:33:19;7.07;;;5.17;;
9392;SDS011;4736;52.508;13.422;2023-08-17T09:36:25;7.60;;;4.50;;
9392;SDS011;4736;52.508;13.422;2023-08-17T09:39:28;5.03;;;4.73;;
9392;SDS011;4736;52.508;13.422;2023-08-17T09:42:34;5.07;;;4.77;;
9392;SDS011;4736;52.508;13.422;2023-08-17T09:45:37;4.80;;;4.30;;
9392;SDS011;4736;52.508;13.422;2023-08-17T09:48:42;5.00;;;4.60;;
9392;SDS011;4736;52.508;13.422;2023-08-17T09:51:47;4.63;;;4.43;;
9392;SDS011;4736;52.508;13.422;2023-08-17T09:54:51;5.23;;;4.93;;
9392;SDS011;4736;52.508;13.422;2023-08-17T09:57:56;4.63;;;4.33;;
9392;SDS011;4736;52.508;13.422;2023-08-17T10:01:02;4.73;;;4.43;;
9392;SDS011;4736;52.508;13.422;2023-08-17T10:04:07;4.40;;;4.07;;
9392;SDS011;4736;52.508;13.422;2023-08-17T10:07:14;4.77;;;4.50;;
9392;SDS011;4736;52.508;13.422;2023-08-17T10:10:21;4.10;;;3.90;;
9392;SDS011;4736;52.508;13.422;2023-08-17T10:13:31;4.67;;;4.47;;
9392;SDS011;4736;52.508;13.422;2023-08-17T10:16:39;4.30;;;4.20;;
9392;SDS011;4736;52.508;13.422;2023-08-17T10:19:49;4.93;;;4.53;;
9392;SDS011;4736;52.508;13.422;2023-08-17T10:22:59;5.07;;;4.87;;
9392;SDS011;4736;52.508;13.422;2023-08-17T10:26:10;5.93;;;5.37;;
9392;SDS011;4736;52.508;13.422;2023-08-17T10:29:14;4.80;;;4.60;;
9392;SDS011;4736;52.508;13.422;2023-08-17T10:32:20;5.23;;;4.77;;
9392;SDS011;4736;52.508;13.422;2023-08-17T10:35:26;5.10;;;4.70;;
9392;SDS011;4736;52.508;13.422;2023-08-17T10:38:31;5.00;;;4.70;;
9392;SDS011;4736;52.508;13.422;2023-08-17T10:41:45;5.70;;;5.30;;
9392;SDS011;4736;52.508;13.422;2023-08-17T10:44:49;5.70;;;5.20;;
9392;SDS011;4736;52.508;13.422;2023-08-17T10:47:59;5.53;;;5.00;;
9392;SDS011;4736;52.508;13.422;2023-08-17T10:51:25;9.73;;;6.00;;
9392;SDS011;4736;52.508;13.422;2023-08-17T10:54:36;4.70;;;4.50;;
9392;SDS011;4736;52.508;13.422;2023-08-17T10:57:40;5.03;;;4.83;;
9392;SDS011;4736;52.508;13.422;2023-08-17T11:00:44;5.73;;;5.33;;
9392;SDS011;4736;52.508;13.422;2023-08-17T11:03:47;5.87;;;5.53;;
9392;SDS011;4736;52.508;13.422;2023-08-17T11:07:13;5.93;;;5.37;;
9392;SDS011;4736;52.508;13.422;2023-08-17T11:10:28;5.60;;;5.30;;
9392;SDS011;4736;52.508;13.422;2023-08-17T11:13:34;5.20;;;4.90;;
9392;SDS011;4736;52.508;13.422;2023-08-17T11:16:38;5.77;;;5.37;;
9392;SDS011;4736;52.508;13.422;2023-08-17T11:19:41;5.73;;;5.33;;
9392;SDS011;4736;52.508;13.422;2023-08-17T11:22:45;5.50;;;5.23;;
9392;SDS011;4736;52.508;13.422;2023-08-17T11:25:50;5.53;;;5.13;;
9392;SDS011;4736;52.508;13.422;2023-08-17T11:28:55;5.03;;;4.93;;
9392;SDS011;4736;52.508;13.422;2023-08-17T11:31:58;5.57;;;5.10;;
9392;SDS011;4736;52.508;13.422;2023-08-17T11:35:02;6.33;;;5.93;;
9392;SDS011;4736;52.508;13.422;2023-08-17T11:38:05;5.57;;;5.10;;
9392;SDS011;4736;52.508;13.422;2023-08-17T11:41:11;5.30;;;4.97;;
9392;SDS011;4736;52.508;13.422;2023-08-17T11:44:19;6.17;;;5.60;;
9392;SDS011;4736;52.508;13.422;2023-08-17T11:47:25;5.60;;;5.30;;
9392;SDS011;4736;52.508;13.422;2023-08-17T11:50:33;7.07;;;5.40;;
9392;SDS011;4736;52.508;13.422;2023-08-17T11:53:40;5.90;;;5.70;;
9392;SDS011;4736;52.508;13.422;2023-08-17T11:56:51;6.17;;;5.80;;
9392;SDS011;4736;52.508;13.422;2023-08-17T11:59:54;5.83;;;5.40;;
9392;SDS011;4736;52.508;13.422;2023-08-17T12:02:58;6.03;;;5.63;;
9392;SDS011;4736;52.508;13.422;2023-08-17T12:06:01;5.53;;;5.33;;
9392;SDS011;4736;52.508;13.422;2023-08-17T12:09:04;5.47;;;5.27;;
9392;SDS011;4736;52.508;13.422;2023-08-17T12:12:10;5.17;;;4.97;;
9392;SDS011;4736;52.508;13.422;2023-08-17T12:15:13;6.13;;;5.10;;
9392;SDS011;4736;52.508;13.422;2023-08-17T12:18:19;6.13;;;5.90;;
9392;SDS011;4736;52.508;13.422;2023-08-17T12:21:24;6.33;;;6.03;;
9392;SDS011;4736;52.508;13.422;2023-08-17T12:24:30;5.80;;;5.50;;
9392;SDS011;4736;52.508;13.422;2023-08-17T12:27:35;5.73;;;5.43;;
9392;SDS011;4736;52.508;13.422;2023-08-17T12:30:38;6.17;;;5.77;;
9392;SDS011;4736;52.508;13.422;2023-08-17T12:33:41;6.37;;;5.90;;
9392;SDS011;4736;52.508;13.422;2023-08-17T12:36:44;6.73;;;6.23;;
9392;SDS011;4736;52.508;13.422;2023-08-17T12:39:48;6.00;;;5.73;;
9392;SDS011;4736;52.508;13.422;2023-08-17T12:42:53;5.57;;;5.13;;
9392;SDS011;4736;52.508;13.422;2023-08-17T12:45:56;6.17;;;5.77;;
9392;SDS011;4736;52.508;13.422;2023-08-17T12:48:59;6.80;;;5.57;;
9392;SDS011;4736;52.508;13.422;2023-08-17T12:52:02;5.73;;;5.33;;
9392;SDS011;4736;52.508;13.422;2023-08-17T12:55:06;5.63;;;5.43;;
9392;SDS011;4736;52.508;13.422;2023-08-17T12:58:11;5.80;;;5.50;;
9392;SDS011;4736;52.508;13.422;2023-08-17T13:01:14;5.60;;;5.30;;
9392;SDS011;4736;52.508;13.422;2023-08-17T13:04:17;6.47;;;6.15;;
9392;SDS011;4736;52.508;13.422;2023-08-17T13:07:20;6.43;;;6.05;;
9392;SDS011;4736;52.508;13.422;2023-08-17T13:10:24;6.50;;;6.03;;
9392;SDS011;4736;52.508;13.422;2023-08-17T13:13:28;5.90;;;5.65;;
9392;SDS011;4736;52.508;13.422;2023-08-17T13:16:31;6.25;;;5.90;;
9392;SDS011;4736;52.508;13.422;2023-08-17T13:19:34;6.00;;;5.80;;
9392;SDS011;4736;52.508;13.422;2023-08-17T13:22:38;5.90;;;5.63;;
9392;SDS011;4736;52.508;13.422;2023-08-17T13:25:41;6.50;;;6.13;;
9392;SDS011;4736;52.508;13.422;2023-08-17T13:28:45;6.57;;;6.27;;
9392;SDS011;4736;52.508;13.422;2023-08-17T13:31:48;5.87;;;5.57;;
9392;SDS011;4736;52.508;13.422;2023-08-17T13:34:52;6.93;;;6.63;;
9392;SDS011;4736;52.508;13.422;2023-08-17T13:37:55;6.73;;;6.33;;
9392;SDS011;4736;52.508;13.422;2023-08-17T13:40:58;6.40;;;6.20;;
9392;SDS011;4736;52.508;13.422;2023-08-17T13:44:03;5.50;;;5.33;;
9392;SDS011;4736;52.508;13.422;2023-08-17T13:47:07;5.23;;;5.13;;
9392;SDS011;4736;52.508;13.422;2023-08-17T13:50:11;5.60;;;5.40;;
9392;SDS011;4736;52.508;13.422;2023-08-17T13:53:14;6.55;;;5.93;;
9392;SDS011;4736;52.508;13.422;2023-08-17T13:56:17;6.07;;;5.77;;
9392;SDS011;4736;52.508;13.422;2023-08-17T13:59:22;5.60;;;5.30;;
9392;SDS011;4736;52.508;13.422;2023-08-17T14:02:25;6.03;;;5.55;;
9392;SDS011;4736;52.508;13.422;2023-08-17T14:05:31;5.30;;;5.00;;
9392;SDS011;4736;52.508;13.422;2023-08-17T14:08:34;6.60;;;6.10;;
9392;SDS011;4736;52.508;13.422;2023-08-17T14:11:38;6.03;;;5.70;;
9392;SDS011;4736;52.508;13.422;2023-08-17T14:14:42;5.63;;;5.40;;
9392;SDS011;4736;52.508;13.422;2023-08-17T14:17:46;5.60;;;5.20;;
9392;SDS011;4736;52.508;13.422;2023-08-17T14:20:49;5.40;;;5.20;;
9392;SDS011;4736;52.508;13.422;2023-08-17T14:23:52;5.18;;;4.90;;
9392;SDS011;4736;52.508;13.422;2023-08-17T14:26:55;5.20;;;5.00;;
9392;SDS011;4736;52.508;13.422;2023-08-17T14:30:00;6.03;;;5.70;;
9392;SDS011;4736;52.508;13.422;2023-08-17T14:33:05;5.80;;;5.40;;
9392;SDS011;4736;52.508;13.422;2023-08-17T14:36:08;5.28;;;5.07;;
9392;SDS011;4736;52.508;13.422;2023-08-17T14:39:11;5.90;;;5.55;;
9392;SDS011;4736;52.508;13.422;2023-08-17T14:42:14;5.65;;;5.25;;
9392;SDS011;4736;52.508;13.422;2023-08-17T14:45:19;5.20;;;4.97;;
9392;SDS011;4736;52.508;13.422;2023-08-17T14:48:22;5.68;;;5.35;;
9392;SDS011;4736;52.508;13.422;2023-08-17T14:51:25;4.82;;;4.63;;
9392;SDS011;4736;52.508;13.422;2023-08-17T14:54:32;5.97;;;5.40;;
9392;SDS011;4736;52.508;13.422;2023-08-17T14:57:35;5.40;;;5.13;;
9392;SDS011;4736;52.508;13.422;2023-08-17T15:00:40;5.28;;;5.00;;
9392;SDS011;4736;52.508;13.422;2023-08-17T15:03:43;5.43;;;5.07;;
9392;SDS011;4736;52.508;13.422;2023-08-17T15:06:47;5.10;;;4.88;;
9392;SDS011;4736;52.508;13.422;2023-08-17T15:09:51;5.30;;;5.20;;
9392;SDS011;4736;52.508;13.422;2023-08-17T15:12:54;5.90;;;5.60;;
9392;SDS011;4736;52.508;13.422;2023-08-17T15:15:59;5.78;;;5.25;;
9392;SDS011;4736;52.508;13.422;2023-08-17T15:19:03;5.15;;;5.00;;
9392;SDS011;4736;52.508;13.422;2023-08-17T15:22:08;5.68;;;5.15;;
9392;SDS011;4736;52.508;13.422;2023-08-17T15:25:14;5.65;;;5.35;;
9392;SDS011;4736;52.508;13.422;2023-08-17T15:28:17;4.60;;;4.50;;
9392;SDS011;4736;52.508;13.422;2023-08-17T15:31:22;4.90;;;4.70;;
9392;SDS011;4736;52.508;13.422;2023-08-17T15:34:25;6.33;;;6.03;;
9392;SDS011;4736;52.508;13.422;2023-08-17T15:37:29;4.95;;;4.70;;
9392;SDS011;4736;52.508;13.422;2023-08-17T15:40:33;5.40;;;5.10;;
9392;SDS011;4736;52.508;13.422;2023-08-17T15:43:36;5.83;;;5.53;;
9392;SDS011;4736;52.508;13.422;2023-08-17T15:46:41;5.63;;;5.40;;
9392;SDS011;4736;52.508;13.422;2023-08-17T15:49:44;6.20;;;5.80;;
9392;SDS011;4736;52.508;13.422;2023-08-17T15:52:48;5.80;;;5.50;;
9392;SDS011;4736;52.508;13.422;2023-08-17T15:55:51;5.40;;;5.20;;
9392;SDS011;4736;52.508;13.422;2023-08-17T15:58:54;5.10;;;4.90;;
9392;SDS011;4736;52.508;13.422;2023-08-17T16:01:59;5.43;;;5.20;;
9392;SDS011;4736;52.508;13.422;2023-08-17T16:05:16;5.43;;;5.33;;
9392;SDS011;4736;52.508;13.422;2023-08-17T16:08:19;6.47;;;6.07;;
9392;SDS011;4736;52.508;13.422;2023-08-17T16:11:33;5.23;;;5.00;;
9392;SDS011;4736;52.508;13.422;2023-08-17T16:14:38;5.30;;;5.10;;
9392;SDS011;4736;52.508;13.422;2023-08-17T16:17:42;5.90;;;5.60;;
9392;SDS011;4736;52.508;13.422;2023-08-17T16:20:46;6.40;;;6.00;;
9392;SDS011;4736;52.508;13.422;2023-08-17T16:23:49;7.00;;;6.50;;
9392;SDS011;4736;52.508;13.422;2023-08-17T16:26:52;5.30;;;5.00;;
9392;SDS011;4736;52.508;13.422;2023-08-17T16:29:56;6.17;;;5.67;;
9392;SDS011;4736;52.508;13.422;2023-08-17T16:33:00;5.93;;;5.50;;
9392;SDS011;4736;52.508;13.422;2023-08-17T16:36:03;5.37;;;5.20;;
9392;SDS011;4736;52.508;13.422;2023-08-17T16:39:07;5.73;;;5.27;;
9392;SDS011;4736;52.508;13.422;2023-08-17T16:42:11;5.83;;;5.53;;
9392;SDS011;4736;52.508;13.422;2023-08-17T16:45:14;5.37;;;5.17;;
9392;SDS011;4736;52.508;13.422;2023-08-17T16:48:21;5.40;;;5.20;;
9392;SDS011;4736;52.508;13.422;2023-08-17T16:51:25;5.33;;;5.13;;
9392;SDS011;4736;52.508;13.422;2023-08-17T16:54:28;5.60;;;5.40;;
9392;SDS011;4736;52.508;13.422;2023-08-17T16:57:32;6.40;;;5.80;;
9392;SDS011;4736;52.508;13.422;2023-08-17T17:00:35;7.17;;;6.20;;
9392;SDS011;4736;52.508;13.422;2023-08-17T17:03:40;5.53;;;5.23;;
9392;SDS011;4736;52.508;13.422;2023-08-17T17:06:43;5.47;;;5.27;;
9392;SDS011;4736;52.508;13.422;2023-08-17T17:09:46;5.27;;;5.07;;
9392;SDS011;4736;52.508;13.422;2023-08-17T17:12:50;6.57;;;6.17;;
9392;SDS011;4736;52.508;13.422;2023-08-17T17:15:53;6.20;;;5.80;;
9392;SDS011;4736;52.508;13.422;2023-08-17T17:18:58;5.57;;;5.27;;
9392;SDS011;4736;52.508;13.422;2023-08-17T17:22:01;5.60;;;5.30;;
9392;SDS011;4736;52.508;13.422;2023-08-17T17:25:04;6.43;;;6.23;;
9392;SDS011;4736;52.508;13.422;2023-08-17T17:28:08;6.60;;;6.20;;
9392;SDS011;4736;52.508;13.422;2023-08-17T17:31:11;7.07;;;6.67;;
9392;SDS011;4736;52.508;13.422;2023-08-17T17:34:16;6.40;;;6.13;;
9392;SDS011;4736;52.508;13.422;2023-08-17T17:37:20;6.33;;;6.13;;
9392;SDS011;4736;52.508;13.422;2023-08-17T17:40:24;6.10;;;5.80;;
9392;SDS011;4736;52.508;13.422;2023-08-17T17:43:28;5.73;;;5.40;;
9392;SDS011;4736;52.508;13.422;2023-08-17T17:46:31;7.10;;;6.40;;
9392;SDS011;4736;52.508;13.422;2023-08-17T17:49:36;6.33;;;5.77;;
9392;SDS011;4736;52.508;13.422;2023-08-17T17:52:39;6.77;;;6.07;;
9392;SDS011;4736;52.508;13.422;2023-08-17T17:55:45;6.00;;;5.70;;
9392;SDS011;4736;52.508;13.422;2023-08-17T17:58:48;6.10;;;5.90;;
9392;SDS011;4736;52.508;13.422;2023-08-17T18:01:51;6.73;;;6.07;;
9392;SDS011;4736;52.508;13.422;2023-08-17T18:04:56;6.83;;;6.33;;
9392;SDS011;4736;52.508;13.422;2023-08-17T18:07:59;6.40;;;6.00;;
9392;SDS011;4736;52.508;13.422;2023-08-17T18:11:03;7.23;;;6.57;;
9392;SDS011;4736;52.508;13.422;2023-08-17T18:14:07;6.23;;;5.63;;
9392;SDS011;4736;52.508;13.422;2023-08-17T18:17:10;6.17;;;5.93;;
9392;SDS011;4736;52.508;13.422;2023-08-17T18:20:14;6.93;;;6.30;;
9392;SDS011;4736;52.508;13.422;2023-08-17T18:23:19;6.27;;;5.87;;
9392;SDS011;4736;52.508;13.422;2023-08-17T18:26:22;6.70;;;6.40;;
9392;SDS011;4736;52.508;13.422;2023-08-17T18:29:26;7.33;;;6.97;;
9392;SDS011;4736;52.508;13.422;2023-08-17T18:32:30;6.00;;;5.60;;
9392;SDS011;4736;52.508;13.422;2023-08-17T18:35:35;6.37;;;6.10;;
9392;SDS011;4736;52.508;13.422;2023-08-17T18:38:38;6.63;;;6.10;;
9392;SDS011;4736;52.508;13.422;2023-08-17T18:41:41;6.23;;;5.60;;
9392;SDS011;4736;52.508;13.422;2023-08-17T18:44:50;6.10;;;5.80;;
9392;SDS011;4736;52.508;13.422;2023-08-17T18:47:55;6.20;;;5.83;;